createdAt,value
2018-11-02T00:00:26.006Z,694.73
2018-11-02T00:02:54.935Z,698.33
2018-11-02T00:05:23.922Z,748.90
2018-11-02T00:07:52.947Z,740.17
2018-11-02T00:10:21.930Z,655.17
2018-11-02T00:12:50.953Z,671.77
2018-11-02T00:15:19.993Z,718.73
2018-11-02T00:17:49.012Z,716.90
2018-11-02T00:20:18.013Z,742.20
2018-11-02T00:22:46.994Z,742.77
2018-11-02T00:25:16.010Z,729.13
2018-11-02T00:27:45.040Z,721.03
2018-11-02T00:30:14.035Z,770.73
2018-11-02T00:32:43.044Z,773.07
2018-11-02T00:35:12.013Z,799.40
2018-11-02T00:37:41.029Z,833.90
2018-11-02T00:40:10.060Z,854.73
2018-11-02T00:42:39.753Z,833.13
2018-11-02T00:45:10.476Z,850.70
2018-11-02T00:47:39.723Z,833.63
2018-11-02T00:50:10.370Z,827.33
2018-11-02T00:52:39.433Z,837.33
2018-11-02T00:55:08.860Z,807.70
2018-11-02T00:57:37.979Z,756.83
2018-11-02T01:00:10.746Z,710.30
2018-11-02T01:02:39.809Z,726.67
2018-11-02T01:05:09.457Z,718.30
2018-11-02T01:07:38.565Z,782.97
2018-11-02T01:10:07.814Z,796.57
2018-11-02T01:12:37.889Z,792.23
2018-11-02T01:15:08.033Z,734.07
2018-11-02T01:17:37.178Z,770.13
2018-11-02T01:20:08.291Z,772.27
2018-11-02T01:22:38.102Z,779.50
2018-11-02T01:25:07.691Z,794.77
2018-11-02T01:27:36.805Z,776.97
2018-11-02T01:30:06.262Z,812.97
2018-11-02T01:32:35.278Z,818.60
2018-11-02T01:35:04.498Z,782.73
2018-11-02T01:37:33.529Z,797.23
2018-11-02T01:40:02.605Z,799.40
2018-11-02T01:42:31.653Z,811.63
2018-11-02T01:45:00.804Z,806.10
2018-11-02T01:47:29.777Z,814.27
2018-11-02T01:49:58.848Z,799.93
2018-11-02T01:52:28.110Z,775.23
2018-11-02T01:54:57.203Z,791.53
2018-11-02T01:57:26.377Z,784.70
2018-11-02T01:59:55.421Z,815.30
2018-11-02T02:02:24.453Z,837.73
2018-11-02T02:04:53.490Z,841.70
2018-11-02T02:07:22.554Z,829.90
2018-11-02T02:09:51.584Z,847.40
2018-11-02T02:12:20.641Z,860.83
2018-11-02T02:14:49.667Z,854.20
2018-11-02T02:17:18.696Z,850.40
2018-11-02T02:19:47.836Z,870.07
2018-11-02T02:22:16.879Z,887.83
2018-11-02T02:24:45.874Z,891.23
2018-11-02T02:27:14.905Z,859.50
2018-11-02T02:29:43.937Z,857.00
2018-11-02T02:32:13.012Z,863.60
2018-11-02T02:34:42.001Z,847.43
2018-11-02T02:37:11.093Z,870.57
2018-11-02T02:39:40.133Z,852.70
2018-11-02T02:42:09.172Z,873.87
2018-11-02T02:44:38.220Z,857.53
2018-11-02T02:47:07.271Z,883.03
2018-11-02T02:49:36.325Z,864.57
2018-11-02T02:52:05.607Z,895.90
2018-11-02T02:54:34.669Z,885.40
2018-11-02T02:57:03.722Z,888.77
2018-11-02T02:59:32.854Z,907.63
2018-11-02T03:02:01.854Z,918.03
2018-11-02T03:04:30.913Z,895.70
2018-11-02T03:07:00.240Z,890.80
2018-11-02T03:09:29.337Z,887.20
2018-11-02T03:11:58.407Z,884.70
2018-11-02T03:14:27.422Z,894.70
2018-11-02T03:16:56.465Z,891.67
2018-11-02T03:19:25.681Z,861.30
2018-11-02T03:21:55.434Z,889.47
2018-11-02T03:24:24.484Z,881.13
2018-11-02T03:26:53.499Z,872.63
2018-11-02T03:29:22.614Z,842.77
2018-11-02T03:31:51.663Z,872.67
2018-11-02T03:34:20.688Z,862.77
2018-11-02T03:36:49.853Z,855.47
2018-11-02T03:39:18.880Z,869.63
2018-11-02T03:41:47.888Z,848.77
2018-11-02T03:44:16.988Z,880.57
2018-11-02T03:46:46.009Z,896.13
2018-11-02T03:49:15.521Z,878.63
2018-11-02T03:51:44.569Z,909.40
2018-11-02T03:54:13.685Z,897.43
2018-11-02T03:56:42.760Z,856.27
2018-11-02T03:59:12.249Z,872.00
2018-11-02T04:01:41.321Z,861.63
2018-11-02T04:04:10.332Z,830.87
2018-11-02T04:06:39.389Z,829.53
2018-11-02T04:09:08.939Z,837.73
2018-11-02T04:11:38.035Z,806.47
2018-11-02T04:14:07.144Z,811.37
2018-11-02T04:16:36.252Z,794.10
2018-11-02T04:19:05.367Z,801.70
2018-11-02T04:21:44.023Z,792.27
2018-11-02T04:24:13.074Z,800.43
2018-11-02T04:26:42.145Z,773.13
2018-11-02T04:29:12.487Z,756.83
2018-11-02T04:31:42.068Z,739.20
2018-11-02T04:34:11.218Z,709.70
2018-11-02T04:36:40.334Z,712.83
2018-11-02T04:39:11.546Z,702.00
2018-11-02T04:41:40.646Z,762.27
2018-11-02T04:44:10.390Z,751.57
2018-11-02T04:46:39.656Z,751.93
2018-11-02T04:49:09.029Z,761.73
2018-11-02T04:51:38.461Z,771.53
2018-11-02T04:54:07.508Z,788.00
2018-11-02T04:56:36.565Z,789.60
2018-11-02T04:59:05.902Z,789.07
2018-11-02T05:01:34.889Z,801.47
2018-11-02T05:04:03.981Z,772.17
2018-11-02T05:06:32.984Z,777.50
2018-11-02T05:09:02.299Z,789.47
2018-11-02T05:11:31.475Z,764.30
2018-11-02T05:14:00.421Z,771.27
2018-11-02T05:16:29.450Z,733.57
2018-11-02T05:18:58.433Z,793.77
2018-11-02T05:21:27.510Z,800.53
2018-11-02T05:23:56.528Z,791.23
2018-11-02T05:26:25.597Z,842.27
2018-11-02T05:28:54.702Z,777.07
2018-11-02T05:31:23.732Z,707.93
2018-11-02T05:33:52.778Z,757.93
2018-11-02T05:36:21.863Z,721.30
2018-11-02T05:38:50.898Z,650.93
2018-11-02T05:41:19.917Z,676.27
2018-11-02T05:43:48.965Z,743.07
2018-11-02T05:46:18.030Z,742.77
2018-11-02T05:48:47.166Z,716.17
2018-11-02T05:51:16.204Z,670.40
2018-11-02T05:53:45.199Z,628.03
2018-11-02T05:56:14.259Z,652.17
2018-11-02T05:58:43.264Z,670.93
2018-11-02T06:01:12.315Z,722.50
2018-11-02T06:03:41.409Z,668.13
2018-11-02T06:06:10.476Z,715.37
2018-11-02T06:08:39.485Z,679.47
2018-11-02T06:11:08.945Z,692.70
2018-11-02T06:13:38.073Z,741.20
2018-11-02T06:16:07.065Z,753.40
2018-11-02T06:18:36.118Z,728.03
2018-11-02T06:21:05.344Z,744.33
2018-11-02T06:23:34.393Z,736.77
2018-11-02T06:26:03.452Z,728.50
2018-11-02T06:28:32.470Z,742.40
2018-11-02T06:31:01.524Z,754.10
2018-11-02T06:33:30.593Z,748.00
2018-11-02T06:35:59.626Z,758.97
2018-11-02T06:38:28.719Z,738.90
2018-11-02T06:40:57.742Z,754.93
2018-11-02T06:43:26.759Z,736.60
2018-11-02T06:45:55.821Z,745.93
2018-11-02T06:48:24.855Z,745.73
2018-11-02T06:50:54.019Z,790.07
2018-11-02T06:53:22.958Z,766.50
2018-11-02T06:55:52.000Z,777.83
2018-11-02T06:58:21.053Z,773.87
2018-11-02T07:00:50.177Z,782.90
2018-11-02T07:03:19.219Z,788.77
2018-11-02T07:05:48.324Z,764.97
2018-11-02T07:08:17.459Z,782.10
2018-11-02T07:10:46.625Z,756.73
2018-11-02T07:13:15.674Z,742.87
2018-11-02T07:15:44.730Z,751.23
2018-11-02T07:18:13.804Z,736.23
2018-11-02T07:20:42.858Z,751.87
2018-11-02T07:23:12.049Z,721.90
2018-11-02T07:25:41.095Z,726.07
2018-11-02T07:28:10.109Z,683.20
2018-11-02T07:30:39.269Z,708.63
2018-11-02T07:33:08.242Z,704.47
2018-11-02T07:35:37.269Z,712.70
2018-11-02T07:38:06.357Z,716.57
2018-11-02T07:40:35.377Z,734.77
2018-11-02T07:43:04.502Z,748.33
2018-11-02T07:45:33.517Z,747.63
2018-11-02T07:48:02.539Z,750.80
2018-11-02T07:50:31.570Z,773.57
2018-11-02T07:53:00.624Z,766.87
2018-11-02T07:55:29.933Z,769.10
2018-11-02T07:57:58.905Z,794.10
2018-11-02T08:00:27.932Z,791.60
2018-11-02T08:02:56.937Z,794.73
2018-11-02T08:05:25.936Z,784.17
2018-11-02T08:07:55.053Z,776.67
2018-11-02T08:10:24.024Z,744.27
2018-11-02T08:12:53.041Z,741.37
2018-11-02T08:15:22.036Z,767.17
2018-11-02T08:17:51.150Z,798.87
2018-11-02T08:20:20.127Z,786.53
2018-11-02T08:22:49.137Z,854.17
2018-11-02T08:25:18.157Z,838.13
2018-11-02T08:27:47.161Z,831.23
2018-11-02T08:30:16.220Z,878.53
2018-11-02T08:32:45.246Z,861.07
2018-11-02T08:35:15.476Z,877.03
2018-11-02T08:37:44.569Z,861.27
2018-11-02T08:40:14.093Z,882.53
2018-11-02T08:42:43.561Z,873.40
2018-11-02T08:45:12.576Z,883.17
2018-11-02T08:47:41.563Z,856.60
2018-11-02T08:50:11.227Z,847.73
2018-11-02T08:52:40.237Z,795.73
2018-11-02T08:55:09.212Z,800.37
2018-11-02T08:57:38.623Z,784.97
2018-11-02T09:00:10.316Z,791.50
2018-11-02T09:02:41.834Z,752.50
2018-11-02T09:05:11.830Z,715.40
2018-11-02T09:07:41.268Z,620.27
2018-11-02T09:10:12.687Z,607.47
2018-11-02T09:12:42.497Z,596.00
2018-11-02T09:15:12.407Z,587.87
2018-11-02T09:17:42.693Z,629.83
2018-11-02T09:20:13.336Z,666.80
2018-11-02T09:22:43.074Z,711.53
2018-11-02T09:25:13.155Z,746.87
2018-11-02T09:27:44.590Z,762.10
2018-11-02T09:30:17.250Z,739.90
2018-11-02T09:32:47.193Z,739.93
2018-11-02T09:35:17.659Z,737.47
2018-11-02T09:37:48.780Z,734.63
2018-11-02T09:40:18.967Z,734.23
2018-11-02T09:42:48.613Z,706.43
2018-11-02T09:45:18.339Z,664.87
2018-11-02T09:47:48.234Z,527.27
2018-11-02T09:50:17.438Z,582.13
2018-11-02T09:52:46.795Z,572.23
2018-11-02T09:55:16.607Z,609.17
2018-11-02T09:57:46.407Z,656.50
2018-11-02T10:00:15.736Z,681.53
2018-11-02T10:02:44.791Z,665.97
2018-11-02T10:05:13.992Z,744.17
2018-11-02T10:07:43.170Z,743.43
2018-11-02T10:10:12.935Z,715.77
2018-11-02T10:12:41.985Z,752.93
2018-11-02T10:15:14.755Z,749.00
2018-11-02T10:17:45.970Z,722.53
2018-11-02T10:20:16.129Z,719.07
2018-11-02T10:22:47.804Z,723.60
2018-11-02T10:25:18.373Z,732.23
2018-11-02T10:27:48.806Z,710.43
2018-11-02T10:30:19.560Z,716.33
2018-11-02T10:32:53.266Z,718.43
2018-11-02T10:35:23.903Z,660.20
2018-11-02T10:37:55.474Z,568.17
2018-11-02T10:40:25.865Z,570.47
2018-11-02T10:43:00.223Z,568.20
2018-11-02T10:45:35.291Z,532.50
2018-11-02T10:48:07.458Z,468.00
2018-11-02T10:50:37.781Z,456.83
2018-11-02T10:53:08.383Z,430.63
2018-11-02T10:55:39.662Z,354.13
2018-11-02T10:58:10.707Z,402.97
2018-11-02T11:00:45.822Z,440.90
2018-11-02T11:03:16.459Z,366.23
2018-11-02T11:05:46.902Z,373.13
2018-11-02T11:08:17.267Z,351.50
2018-11-02T11:10:47.763Z,334.57
2018-11-02T11:13:18.446Z,354.87
2018-11-02T11:15:48.562Z,358.93
2018-11-02T11:18:18.887Z,302.37
2018-11-02T11:20:49.542Z,307.97
2018-11-02T11:23:19.614Z,306.13
2018-11-02T11:25:50.094Z,357.70
2018-11-02T11:28:20.574Z,346.03
2018-11-02T11:30:51.255Z,370.23
2018-11-02T11:33:21.652Z,342.40
2018-11-02T11:35:50.756Z,351.87
2018-11-02T11:38:19.830Z,331.27
2018-11-02T11:40:48.941Z,338.20
2018-11-02T11:43:18.019Z,326.83
2018-11-02T11:45:47.122Z,338.63
2018-11-02T11:48:16.197Z,349.27
2018-11-02T11:50:51.966Z,357.80
2018-11-02T11:53:21.103Z,384.03
2018-11-02T11:55:50.161Z,370.60
2018-11-02T11:58:19.202Z,373.90
2018-11-02T12:00:48.313Z,378.83
2018-11-02T12:03:18.324Z,369.20
2018-11-02T12:05:48.837Z,370.60
2018-11-02T12:08:19.278Z,357.63
2018-11-02T12:10:49.890Z,373.70
2018-11-02T12:13:23.014Z,368.10
2018-11-02T12:15:56.814Z,399.87
2018-11-02T12:18:30.591Z,447.23
2018-11-02T12:21:08.097Z,417.27
2018-11-02T12:25:09.932Z,446.17
2018-11-02T12:27:48.625Z,431.70
2018-11-02T12:30:24.074Z,388.90
2018-11-02T12:32:58.005Z,394.57
2018-11-02T12:35:37.094Z,402.77
2018-11-02T12:38:19.350Z,391.00
2018-11-02T12:40:58.987Z,369.07
2018-11-02T12:43:32.613Z,427.47
2018-11-02T12:46:09.154Z,390.33
2018-11-02T12:48:49.815Z,435.00
2018-11-02T12:51:24.654Z,355.80
2018-11-02T12:54:00.442Z,382.10
2018-11-02T12:56:38.384Z,341.20
2018-11-02T12:59:11.908Z,305.43
2018-11-02T13:01:47.576Z,322.03
2018-11-02T13:04:20.531Z,341.87
2018-11-02T13:06:51.111Z,330.10
2018-11-02T13:09:21.883Z,328.63
2018-11-02T13:11:52.289Z,336.17
2018-11-02T13:14:24.000Z,339.93
2018-11-02T13:16:53.118Z,330.83
2018-11-02T13:19:22.199Z,356.77
2018-11-02T13:21:51.240Z,366.17
2018-11-02T13:24:20.276Z,357.37
2018-11-02T13:26:49.528Z,380.73
2018-11-02T13:29:18.569Z,390.60
2018-11-02T13:31:47.609Z,401.33
2018-11-02T13:34:16.723Z,371.67
2018-11-02T13:36:47.357Z,370.03
2018-11-02T13:39:20.054Z,399.27
2018-11-02T13:41:53.817Z,406.10
2018-11-02T13:44:28.733Z,412.77
2018-11-02T13:47:10.647Z,426.13
2018-11-02T13:49:55.267Z,416.90
2018-11-02T13:52:30.867Z,390.93
2018-11-02T13:55:06.477Z,392.97
2018-11-02T14:00:26.630Z,389.60
2018-11-02T14:02:59.974Z,382.67
2018-11-02T14:05:31.755Z,415.83
2018-11-02T14:08:28.376Z,413.37
2018-11-02T14:11:09.894Z,399.23
2018-11-02T14:13:50.515Z,373.13
2018-11-02T14:16:39.373Z,361.37
2018-11-02T14:19:18.246Z,371.67
2018-11-02T14:22:01.979Z,358.93
2018-11-02T14:24:37.197Z,359.20
2018-11-02T14:27:33.537Z,395.17
2018-11-02T14:30:19.105Z,358.07
2018-11-02T14:32:57.066Z,360.87
2018-11-02T14:35:37.771Z,311.60
2018-11-02T14:41:05.992Z,252.00
2018-11-02T14:43:47.327Z,250.10
2018-11-02T14:46:29.695Z,255.87
2018-11-02T14:49:10.026Z,270.57
2018-11-02T14:51:55.263Z,318.83
2018-11-02T14:54:42.985Z,347.63
2018-11-02T14:57:25.690Z,368.57
2018-11-02T15:00:04.800Z,388.83
2018-11-02T15:02:54.401Z,435.00
2018-11-02T15:05:40.141Z,434.70
2018-11-02T15:10:54.488Z,496.13
2018-11-02T15:13:33.977Z,476.00
2018-11-02T15:16:11.128Z,500.53
2018-11-02T15:18:57.784Z,521.03
2018-11-02T15:21:38.026Z,497.40
2018-11-02T15:29:50.308Z,494.33
2018-11-02T15:32:19.662Z,493.37
2018-11-02T15:35:00.097Z,485.87
2018-11-02T15:37:38.330Z,502.20
2018-11-02T15:40:20.659Z,463.97
2018-11-02T15:42:58.836Z,465.20
2018-11-02T15:45:36.449Z,476.97
2018-11-02T15:48:11.048Z,476.83
2018-11-02T15:50:46.340Z,508.33
2018-11-02T15:53:25.112Z,524.87
2018-11-02T15:55:59.587Z,517.93
2018-11-02T15:58:43.522Z,524.73
2018-11-02T16:04:10.449Z,524.83
2018-11-02T16:06:50.362Z,543.73
2018-11-02T16:09:29.670Z,540.00
2018-11-02T16:12:06.037Z,552.77
2018-11-02T16:17:28.259Z,532.50
2018-11-02T16:20:00.852Z,527.90
2018-11-02T16:22:40.263Z,520.30
2018-11-02T16:25:20.863Z,487.50
2018-11-02T16:27:57.686Z,514.70
2018-11-02T16:30:30.544Z,522.07
2018-11-02T16:33:02.366Z,522.77
2018-11-02T16:35:34.984Z,549.37
2018-11-02T16:38:06.909Z,563.53
2018-11-02T16:40:38.133Z,571.60
2018-11-02T16:43:14.834Z,572.47
2018-11-02T16:45:48.122Z,565.87
2018-11-02T16:48:18.783Z,592.50
2018-11-02T16:50:50.920Z,585.53
2018-11-02T16:53:21.927Z,607.20
2018-11-02T16:55:53.220Z,604.70
2018-11-02T16:58:24.049Z,652.20
2018-11-02T17:00:55.086Z,660.60
2018-11-02T17:03:27.078Z,666.23
2018-11-02T17:06:00.522Z,655.30
2018-11-02T17:08:33.001Z,651.40
2018-11-02T17:11:05.347Z,639.07
2018-11-02T17:13:40.562Z,584.33
2018-11-02T17:16:20.250Z,589.90
2018-11-02T17:18:51.879Z,606.40
2018-11-02T17:21:24.581Z,606.03
2018-11-02T17:23:59.994Z,582.53
2018-11-02T17:26:33.109Z,555.73
2018-11-02T17:29:10.341Z,594.30
2018-11-02T17:31:41.034Z,569.50
2018-11-02T17:34:12.718Z,603.57
2018-11-02T17:36:46.388Z,601.70
2018-11-02T17:39:21.039Z,603.53
2018-11-02T17:41:54.644Z,577.90
2018-11-02T17:44:30.535Z,596.17
2018-11-02T17:47:01.096Z,571.57
2018-11-02T17:49:31.652Z,573.63
2018-11-02T17:52:02.205Z,588.40
2018-11-02T17:54:31.477Z,564.17
2018-11-02T17:57:00.636Z,593.77
2018-11-02T17:59:29.845Z,581.40
2018-11-02T18:01:59.060Z,592.40
2018-11-02T18:04:28.284Z,562.23
2018-11-02T18:06:57.779Z,595.17
2018-11-02T18:09:27.204Z,596.70
2018-11-02T18:11:56.537Z,588.87
2018-11-02T18:14:25.806Z,569.03
2018-11-02T18:16:55.683Z,564.27
2018-11-02T18:19:25.031Z,556.10
2018-11-02T18:21:54.397Z,595.10
2018-11-02T18:24:23.757Z,592.60
2018-11-02T18:26:53.367Z,596.63
2018-11-02T18:29:22.491Z,592.73
2018-11-02T18:31:51.624Z,597.90
2018-11-02T18:34:20.694Z,594.97
2018-11-02T18:36:49.830Z,589.50
2018-11-02T18:39:18.927Z,575.43
2018-11-02T18:41:47.991Z,538.87
2018-11-02T18:44:17.225Z,562.30
2018-11-02T18:46:46.395Z,576.07
2018-11-02T18:49:15.511Z,576.43
2018-11-02T18:51:44.596Z,576.57
2018-11-02T18:54:13.797Z,589.90
2018-11-02T18:56:42.892Z,559.47
2018-11-02T18:59:12.021Z,574.90
2018-11-02T19:01:41.102Z,555.23
2018-11-02T19:04:10.184Z,562.53
2018-11-02T19:06:39.294Z,581.43
2018-11-02T19:09:09.791Z,565.37
2018-11-02T19:11:39.114Z,570.57
2018-11-02T19:14:08.341Z,556.77
2018-11-02T19:16:37.460Z,572.83
2018-11-02T19:19:08.595Z,588.13
2018-11-02T19:21:38.454Z,557.13
2018-11-02T19:24:08.476Z,595.13
2018-11-02T19:26:38.553Z,582.33
2018-11-02T19:29:09.741Z,557.57
2018-11-02T19:31:38.877Z,546.93
2018-11-02T19:34:08.018Z,568.23
2018-11-02T19:36:37.305Z,549.77
2018-11-02T19:39:08.338Z,559.37
2018-11-02T19:41:37.425Z,534.40
2018-11-02T19:44:06.593Z,550.10
2018-11-02T19:46:38.559Z,544.50
2018-11-02T19:49:07.782Z,551.03
2018-11-02T19:51:36.767Z,529.90
2018-11-02T19:54:05.927Z,544.03
2018-11-02T19:56:34.983Z,568.10
2018-11-02T19:59:04.084Z,536.03
2018-11-02T20:01:33.104Z,543.73
2018-11-02T20:04:02.228Z,534.57
2018-11-02T20:06:31.265Z,508.67
2018-11-02T20:09:00.281Z,533.50
2018-11-02T20:11:29.342Z,523.93
2018-11-02T20:13:58.369Z,512.80
2018-11-02T20:16:27.484Z,478.13
2018-11-02T20:18:56.612Z,477.30
2018-11-02T20:21:25.633Z,483.57
2018-11-02T20:23:54.681Z,477.17
2018-11-02T20:26:23.730Z,483.83
2018-11-02T20:28:52.735Z,446.70
2018-11-02T20:31:21.797Z,456.77
2018-11-02T20:33:50.799Z,457.10
2018-11-02T20:36:19.889Z,471.20
2018-11-02T20:38:49.706Z,474.00
2018-11-02T20:41:18.681Z,490.80
2018-11-02T20:43:47.733Z,482.13
2018-11-02T20:46:16.798Z,496.70
2018-11-02T20:48:45.895Z,488.10
2018-11-02T20:51:14.985Z,464.00
2018-11-02T20:53:44.067Z,492.23
2018-11-02T20:56:13.084Z,500.53
2018-11-02T20:58:42.217Z,488.03
2018-11-02T21:01:11.277Z,500.57
2018-11-02T21:03:40.624Z,500.90
2018-11-02T21:06:09.816Z,511.40
2018-11-02T21:08:38.959Z,506.20
2018-11-02T21:11:08.140Z,513.17
2018-11-02T21:13:37.258Z,510.30
2018-11-02T21:16:06.360Z,537.97
2018-11-02T21:18:35.441Z,527.43
2018-11-02T21:21:04.891Z,496.63
2018-11-02T21:23:33.963Z,475.70
2018-11-02T21:26:03.089Z,483.07
2018-11-02T21:28:32.191Z,471.47
2018-11-02T21:31:01.289Z,490.47
2018-11-02T21:33:30.372Z,469.03
2018-11-02T21:35:59.418Z,486.97
2018-11-02T21:38:28.540Z,466.47
2018-11-02T21:40:57.636Z,484.60
2018-11-02T21:43:26.730Z,479.13
2018-11-02T21:45:55.797Z,440.80
2018-11-02T21:48:24.866Z,451.10
2018-11-02T21:50:53.933Z,440.17
2018-11-02T21:53:22.980Z,416.47
2018-11-02T21:55:52.077Z,444.47
2018-11-02T21:58:21.179Z,447.97
2018-11-02T22:00:50.229Z,447.90
2018-11-02T22:03:19.271Z,453.33
2018-11-02T22:05:48.457Z,442.20
2018-11-02T22:08:17.506Z,441.03
2018-11-02T22:10:46.594Z,451.63
2018-11-02T22:13:15.628Z,451.40
2018-11-02T22:15:44.765Z,458.37
2018-11-02T22:18:13.826Z,429.93
2018-11-02T22:20:42.921Z,442.97
2018-11-02T22:23:11.978Z,422.43
2018-11-02T22:25:41.113Z,431.40
2018-11-02T22:28:10.184Z,442.63
2018-11-02T22:30:39.242Z,441.03
2018-11-02T22:33:08.412Z,467.13
2018-11-02T22:35:37.503Z,442.03
2018-11-02T22:38:06.560Z,467.67
2018-11-02T22:40:35.618Z,450.33
2018-11-02T22:43:04.655Z,453.30
2018-11-02T22:45:33.701Z,435.07
2018-11-02T22:48:08.089Z,467.60
2018-11-02T22:50:37.149Z,444.17
2018-11-02T22:53:06.204Z,454.93
2018-11-02T22:55:35.271Z,489.67
2018-11-02T22:58:04.360Z,500.83
2018-11-02T23:00:33.517Z,490.43
2018-11-02T23:03:02.594Z,475.80
2018-11-02T23:05:31.727Z,521.53
2018-11-02T23:08:00.673Z,520.87
2018-11-02T23:10:29.781Z,549.57
2018-11-02T23:12:59.695Z,569.90
2018-11-02T23:15:28.825Z,565.63
2018-11-02T23:17:57.920Z,540.87
2018-11-02T23:20:27.027Z,533.03
2018-11-02T23:22:56.118Z,537.57
2018-11-02T23:25:25.129Z,508.60
2018-11-02T23:27:54.206Z,523.63
2018-11-02T23:30:23.269Z,498.37
2018-11-02T23:32:52.302Z,498.30
2018-11-02T23:35:21.433Z,513.03
2018-11-02T23:37:50.546Z,510.23
2018-11-02T23:40:22.516Z,510.83
2018-11-02T23:42:51.688Z,520.90
2018-11-02T23:45:22.912Z,528.70
2018-11-02T23:47:56.915Z,494.70
2018-11-02T23:50:26.922Z,487.50
2018-11-02T23:52:58.403Z,496.93
2018-11-02T23:55:27.531Z,489.67
2018-11-02T23:57:57.553Z,456.73
